sensor_id;sensor_type;location;lat;lon;timestamp;pressure;altitude;pressure_sealevel;temperature;humidity
51528;BME280;37612;51.768;21.590;2023-04-08T00:01:34;100554.28;;;3.62;95.94
51528;BME280;37612;51.768;21.590;2023-04-08T00:05:46;100549.28;;;3.43;96.09
51528;BME280;37612;51.768;21.590;2023-04-08T00:09:48;100557.34;;;3.30;95.93
51528;BME280;37612;51.768;21.590;2023-04-08T00:13:55;100559.61;;;3.18;95.80
51528;BME280;37612;51.768;21.590;2023-04-08T00:17:57;100559.34;;;3.02;95.76
51528;BME280;37612;51.768;21.590;2023-04-08T00:21:59;100561.66;;;2.86;95.97
51528;BME280;37612;51.768;21.590;2023-04-08T00:26:05;100564.09;;;2.70;96.16
51528;BME280;37612;51.768;21.590;2023-04-08T00:30:07;100564.09;;;2.57;95.86
51528;BME280;37612;51.768;21.590;2023-04-08T00:34:10;100566.89;;;2.44;96.21
51528;BME280;37612;51.768;21.590;2023-04-08T00:38:12;100562.53;;;2.31;96.16
51528;BME280;37612;51.768;21.590;2023-04-08T00:42:14;100560.68;;;2.14;96.32
51528;BME280;37612;51.768;21.590;2023-04-08T00:46:17;100558.08;;;1.98;96.38
51528;BME280;37612;51.768;21.590;2023-04-08T00:50:19;100559.60;;;1.90;96.39
51528;BME280;37612;51.768;21.590;2023-04-08T00:54:21;100565.13;;;1.80;96.60
51528;BME280;37612;51.768;21.590;2023-04-08T00:58:27;100567.67;;;1.67;96.58
51528;BME280;37612;51.768;21.590;2023-04-08T01:02:35;100573.61;;;1.51;97.00
51528;BME280;37612;51.768;21.590;2023-04-08T01:11:14;100577.67;;;1.26;97.37
51528;BME280;37612;51.768;21.590;2023-04-08T01:15:16;100577.04;;;1.23;97.45
51528;BME280;37612;51.768;21.590;2023-04-08T01:19:33;100571.80;;;1.19;97.66
51528;BME280;37612;51.768;21.590;2023-04-08T01:23:57;100575.08;;;1.15;98.04
51528;BME280;37612;51.768;21.590;2023-04-08T01:28:03;100577.87;;;1.11;97.77
51528;BME280;37612;51.768;21.590;2023-04-08T01:32:07;100578.41;;;1.04;97.73
51528;BME280;37612;51.768;21.590;2023-04-08T01:36:09;100578.13;;;0.91;97.46
51528;BME280;37612;51.768;21.590;2023-04-08T01:40:12;100576.22;;;0.79;97.89
51528;BME280;37612;51.768;21.590;2023-04-08T01:44:15;100581.72;;;0.69;97.98
51528;BME280;37612;51.768;21.590;2023-04-08T01:48:18;100585.97;;;0.59;97.80
51528;BME280;37612;51.768;21.590;2023-04-08T01:52:21;100587.05;;;0.51;97.69
51528;BME280;37612;51.768;21.590;2023-04-08T01:56:27;100597.52;;;0.43;97.97
51528;BME280;37612;51.768;21.590;2023-04-08T02:00:30;100600.84;;;0.35;98.13
51528;BME280;37612;51.768;21.590;2023-04-08T02:04:33;100602.30;;;0.27;98.51
51528;BME280;37612;51.768;21.590;2023-04-08T02:08:35;100601.95;;;0.22;98.54
51528;BME280;37612;51.768;21.590;2023-04-08T02:12:37;100603.86;;;0.22;98.72
51528;BME280;37612;51.768;21.590;2023-04-08T02:16:48;100609.98;;;0.24;98.87
51528;BME280;37612;51.768;21.590;2023-04-08T02:21:01;100611.49;;;0.25;99.35
51528;BME280;37612;51.768;21.590;2023-04-08T02:25:08;100609.27;;;0.20;99.10
51528;BME280;37612;51.768;21.590;2023-04-08T02:29:14;100612.46;;;0.18;98.94
51528;BME280;37612;51.768;21.590;2023-04-08T02:33:19;100616.70;;;0.18;98.92
51528;BME280;37612;51.768;21.590;2023-04-08T02:37:21;100617.69;;;0.14;98.99
51528;BME280;37612;51.768;21.590;2023-04-08T02:41:27;100625.12;;;0.05;98.92
51528;BME280;37612;51.768;21.590;2023-04-08T02:45:31;100625.65;;;-0.06;99.03
51528;BME280;37612;51.768;21.590;2023-04-08T02:49:33;100634.70;;;-0.12;99.05
51528;BME280;37612;51.768;21.590;2023-04-08T02:53:35;100634.80;;;-0.17;99.01
51528;BME280;37612;51.768;21.590;2023-04-08T02:57:40;100636.29;;;-0.22;99.03
51528;BME280;37612;51.768;21.590;2023-04-08T03:01:42;100636.25;;;-0.30;99.30
51528;BME280;37612;51.768;21.590;2023-04-08T03:05:44;100642.64;;;-0.37;99.38
51528;BME280;37612;51.768;21.590;2023-04-08T03:09:46;100640.41;;;-0.39;99.41
51528;BME280;37612;51.768;21.590;2023-04-08T03:13:48;100634.41;;;-0.39;99.57
51528;BME280;37612;51.768;21.590;2023-04-08T03:17:50;100639.40;;;-0.43;99.48
51528;BME280;37612;51.768;21.590;2023-04-08T03:21:52;100640.40;;;-0.53;99.28
51528;BME280;37612;51.768;21.590;2023-04-08T03:25:55;100640.95;;;-0.61;98.92
51528;BME280;37612;51.768;21.590;2023-04-08T03:29:56;100637.62;;;-0.66;99.16
51528;BME280;37612;51.768;21.590;2023-04-08T03:33:58;100639.98;;;-0.72;99.42
51528;BME280;37612;51.768;21.590;2023-04-08T03:38:00;100645.48;;;-0.81;99.47
51528;BME280;37612;51.768;21.590;2023-04-08T03:42:02;100647.79;;;-0.84;99.76
51528;BME280;37612;51.768;21.590;2023-04-08T03:46:04;100654.31;;;-0.83;99.78
51528;BME280;37612;51.768;21.590;2023-04-08T03:50:07;100655.44;;;-0.86;99.74
51528;BME280;37612;51.768;21.590;2023-04-08T03:54:10;100664.35;;;-0.89;100.00
51528;BME280;37612;51.768;21.590;2023-04-08T03:58:12;100668.04;;;-0.91;100.00
51528;BME280;37612;51.768;21.590;2023-04-08T04:02:14;100671.39;;;-0.94;100.00
51528;BME280;37612;51.768;21.590;2023-04-08T04:06:16;100673.11;;;-0.92;100.00
51528;BME280;37612;51.768;21.590;2023-04-08T04:10:18;100674.91;;;-0.88;100.00
51528;BME280;37612;51.768;21.590;2023-04-08T04:14:20;100674.67;;;-0.84;100.00
51528;BME280;37612;51.768;21.590;2023-04-08T04:18:21;100680.63;;;-0.76;100.00
51528;BME280;37612;51.768;21.590;2023-04-08T04:22:23;100685.95;;;-0.67;100.00
51528;BME280;37612;51.768;21.590;2023-04-08T04:26:25;100687.20;;;-0.59;100.00
51528;BME280;37612;51.768;21.590;2023-04-08T04:30:28;100688.13;;;-0.51;100.00
51528;BME280;37612;51.768;21.590;2023-04-08T04:34:29;100691.63;;;-0.39;100.00
51528;BME280;37612;51.768;21.590;2023-04-08T04:38:31;100696.20;;;-0.26;100.00
51528;BME280;37612;51.768;21.590;2023-04-08T04:42:33;100702.34;;;-0.15;100.00
51528;BME280;37612;51.768;21.590;2023-04-08T04:46:35;100705.34;;;-0.06;100.00
51528;BME280;37612;51.768;21.590;2023-04-08T04:50:37;100705.52;;;0.10;100.00
51528;BME280;37612;51.768;21.590;2023-04-08T04:54:39;100712.46;;;0.23;100.00
51528;BME280;37612;51.768;21.590;2023-04-08T04:58:41;100714.22;;;0.34;100.00
51528;BME280;37612;51.768;21.590;2023-04-08T05:02:43;100719.89;;;0.47;100.00
51528;BME280;37612;51.768;21.590;2023-04-08T05:06:46;100722.31;;;0.64;100.00
51528;BME280;37612;51.768;21.590;2023-04-08T05:10:48;100726.23;;;0.70;100.00
51528;BME280;37612;51.768;21.590;2023-04-08T05:14:52;100726.21;;;0.82;100.00
51528;BME280;37612;51.768;21.590;2023-04-08T05:18:54;100732.23;;;1.02;100.00
51528;BME280;37612;51.768;21.590;2023-04-08T05:22:56;100736.73;;;1.20;100.00
51528;BME280;37612;51.768;21.590;2023-04-08T05:26:58;100740.98;;;1.38;100.00
51528;BME280;37612;51.768;21.590;2023-04-08T05:31:00;100732.09;;;1.55;100.00
51528;BME280;37612;51.768;21.590;2023-04-08T05:35:02;100731.27;;;1.74;100.00
51528;BME280;37612;51.768;21.590;2023-04-08T05:39:04;100733.45;;;1.94;100.00
51528;BME280;37612;51.768;21.590;2023-04-08T05:43:08;100737.50;;;2.11;100.00
51528;BME280;37612;51.768;21.590;2023-04-08T05:47:10;100743.02;;;2.25;100.00
51528;BME280;37612;51.768;21.590;2023-04-08T05:51:15;100739.55;;;2.40;100.00
51528;BME280;37612;51.768;21.590;2023-04-08T05:55:18;100742.15;;;2.60;100.00
51528;BME280;37612;51.768;21.590;2023-04-08T05:59:20;100737.85;;;2.77;100.00
51528;BME280;37612;51.768;21.590;2023-04-08T06:03:22;100740.03;;;2.93;100.00
51528;BME280;37612;51.768;21.590;2023-04-08T06:07:24;100738.72;;;3.11;100.00
51528;BME280;37612;51.768;21.590;2023-04-08T06:11:25;100742.80;;;3.39;100.00
51528;BME280;37612;51.768;21.590;2023-04-08T06:15:28;100740.91;;;3.58;100.00
51528;BME280;37612;51.768;21.590;2023-04-08T06:19:30;100752.04;;;3.72;100.00
51528;BME280;37612;51.768;21.590;2023-04-08T06:23:32;100755.09;;;3.85;100.00
51528;BME280;37612;51.768;21.590;2023-04-08T06:27:34;100756.99;;;4.04;100.00
51528;BME280;37612;51.768;21.590;2023-04-08T06:31:38;100754.10;;;4.26;100.00
51528;BME280;37612;51.768;21.590;2023-04-08T06:35:40;100761.30;;;4.45;100.00
51528;BME280;37612;51.768;21.590;2023-04-08T06:39:42;100763.36;;;4.65;100.00
51528;BME280;37612;51.768;21.590;2023-04-08T06:43:44;100764.30;;;4.90;99.92
51528;BME280;37612;51.768;21.590;2023-04-08T06:47:46;100764.70;;;5.09;99.61
51528;BME280;37612;51.768;21.590;2023-04-08T07:28:04;100784.71;;;6.70;97.21
51528;BME280;37612;51.768;21.590;2023-04-08T07:37:37;100783.26;;;7.50;93.72
51528;BME280;37612;51.768;21.590;2023-04-08T07:41:50;100780.56;;;8.03;93.08
51528;BME280;37612;51.768;21.590;2023-04-08T07:45:52;100777.58;;;8.72;93.88
51528;BME280;37612;51.768;21.590;2023-04-08T07:49:54;100776.05;;;9.26;92.31
51528;BME280;37612;51.768;21.590;2023-04-08T07:53:56;100776.13;;;9.57;91.32
51528;BME280;37612;51.768;21.590;2023-04-08T07:57:57;100778.55;;;9.81;89.88
51528;BME280;37612;51.768;21.590;2023-04-08T08:01:59;100770.66;;;10.00;90.28
51528;BME280;37612;51.768;21.590;2023-04-08T08:06:04;100775.35;;;10.31;86.95
51528;BME280;37612;51.768;21.590;2023-04-08T08:10:06;100771.86;;;10.49;88.42
51528;BME280;37612;51.768;21.590;2023-04-08T08:14:08;100770.86;;;10.73;87.58
51528;BME280;37612;51.768;21.590;2023-04-08T08:18:12;100774.98;;;10.78;85.93
51528;BME280;37612;51.768;21.590;2023-04-08T08:22:14;100775.98;;;10.77;86.41
51528;BME280;37612;51.768;21.590;2023-04-08T08:26:16;100775.87;;;10.82;86.42
51528;BME280;37612;51.768;21.590;2023-04-08T08:30:19;100776.48;;;10.65;83.65
51528;BME280;37612;51.768;21.590;2023-04-08T08:34:22;100782.52;;;10.42;86.12
51528;BME280;37612;51.768;21.590;2023-04-08T08:38:24;100783.65;;;10.28;85.49
51528;BME280;37612;51.768;21.590;2023-04-08T08:42:26;100788.95;;;10.28;86.18
51528;BME280;37612;51.768;21.590;2023-04-08T08:46:28;100784.98;;;10.29;84.69
51528;BME280;37612;51.768;21.590;2023-04-08T08:50:30;100785.98;;;10.31;83.39
51528;BME280;37612;51.768;21.590;2023-04-08T08:54:32;100783.96;;;10.65;84.58
51528;BME280;37612;51.768;21.590;2023-04-08T08:58:34;100781.88;;;10.95;84.42
51528;BME280;37612;51.768;21.590;2023-04-08T09:02:36;100779.46;;;11.19;82.51
51528;BME280;37612;51.768;21.590;2023-04-08T09:06:38;100781.79;;;11.36;83.57
51528;BME280;37612;51.768;21.590;2023-04-08T09:10:40;100781.08;;;11.63;81.19
51528;BME280;37612;51.768;21.590;2023-04-08T09:14:42;100781.86;;;11.77;80.74
51528;BME280;37612;51.768;21.590;2023-04-08T09:18:45;100784.83;;;11.93;81.02
51528;BME280;37612;51.768;21.590;2023-04-08T09:22:57;100788.52;;;12.10;79.12
51528;BME280;37612;51.768;21.590;2023-04-08T09:27:00;100791.67;;;11.90;78.15
51528;BME280;37612;51.768;21.590;2023-04-08T09:31:21;100793.10;;;11.61;78.98
51528;BME280;37612;51.768;21.590;2023-04-08T09:35:24;100792.30;;;11.58;76.57
51528;BME280;37612;51.768;21.590;2023-04-08T09:39:27;100793.05;;;11.57;78.66
51528;BME280;37612;51.768;21.590;2023-04-08T09:43:28;100791.64;;;11.37;77.11
51528;BME280;37612;51.768;21.590;2023-04-08T09:47:36;100792.46;;;11.25;77.21
51528;BME280;37612;51.768;21.590;2023-04-08T09:51:56;100793.92;;;11.08;75.57
51528;BME280;37612;51.768;21.590;2023-04-08T09:56:01;100792.44;;;10.84;75.70
51528;BME280;37612;51.768;21.590;2023-04-08T10:00:14;100792.81;;;10.73;76.12
51528;BME280;37612;51.768;21.590;2023-04-08T10:04:19;100785.83;;;10.71;75.00
51528;BME280;37612;51.768;21.590;2023-04-08T10:08:32;100784.64;;;10.77;76.24
51528;BME280;37612;51.768;21.590;2023-04-08T10:12:35;100789.34;;;10.82;75.31
51528;BME280;37612;51.768;21.590;2023-04-08T10:16:37;100782.89;;;10.73;75.31
51528;BME280;37612;51.768;21.590;2023-04-08T10:37:31;100775.59;;;11.15;73.55
51528;BME280;37612;51.768;21.590;2023-04-08T10:41:33;100771.27;;;11.28;71.94
51528;BME280;37612;51.768;21.590;2023-04-08T10:45:35;100769.46;;;11.26;70.59
51528;BME280;37612;51.768;21.590;2023-04-08T10:49:37;100768.46;;;11.35;70.88
51528;BME280;37612;51.768;21.590;2023-04-08T10:53:39;100765.89;;;11.32;70.41
51528;BME280;37612;51.768;21.590;2023-04-08T10:57:41;100764.63;;;11.23;70.26
51528;BME280;37612;51.768;21.590;2023-04-08T11:01:45;100760.42;;;11.23;70.53
51528;BME280;37612;51.768;21.590;2023-04-08T11:05:48;100759.20;;;11.51;71.48
51528;BME280;37612;51.768;21.590;2023-04-08T11:09:50;100748.85;;;11.66;71.04
51528;BME280;37612;51.768;21.590;2023-04-08T11:13:52;100748.13;;;11.70;71.27
51528;BME280;37612;51.768;21.590;2023-04-08T11:17:54;100746.77;;;11.76;70.16
51528;BME280;37612;51.768;21.590;2023-04-08T11:21:57;100743.67;;;11.89;70.55
51528;BME280;37612;51.768;21.590;2023-04-08T11:26:00;100741.17;;;11.99;69.69
51528;BME280;37612;51.768;21.590;2023-04-08T11:30:02;100733.79;;;12.11;70.31
51528;BME280;37612;51.768;21.590;2023-04-08T11:34:07;100732.52;;;12.25;70.33
51528;BME280;37612;51.768;21.590;2023-04-08T11:38:10;100733.46;;;12.24;66.43
51528;BME280;37612;51.768;21.590;2023-04-08T11:42:31;100729.61;;;12.15;67.43
51528;BME280;37612;51.768;21.590;2023-04-08T11:46:34;100731.11;;;12.32;66.92
51528;BME280;37612;51.768;21.590;2023-04-08T11:50:37;100727.98;;;12.32;66.13
51528;BME280;37612;51.768;21.590;2023-04-08T11:54:41;100729.54;;;12.23;65.09
51528;BME280;37612;51.768;21.590;2023-04-08T11:58:44;100730.64;;;12.03;66.00
51528;BME280;37612;51.768;21.590;2023-04-08T12:02:47;100727.49;;;12.13;66.39
51528;BME280;37612;51.768;21.590;2023-04-08T12:06:49;100720.71;;;12.34;65.51
51528;BME280;37612;51.768;21.590;2023-04-08T12:10:51;100714.19;;;12.60;66.18
51528;BME280;37612;51.768;21.590;2023-04-08T12:14:53;100720.45;;;12.83;65.40
51528;BME280;37612;51.768;21.590;2023-04-08T12:18:57;100714.98;;;12.87;63.85
51528;BME280;37612;51.768;21.590;2023-04-08T12:22:59;100711.13;;;12.99;64.18
51528;BME280;37612;51.768;21.590;2023-04-08T12:27:01;100708.48;;;13.15;63.74
51528;BME280;37612;51.768;21.590;2023-04-08T12:31:06;100700.86;;;13.36;63.77
51528;BME280;37612;51.768;21.590;2023-04-08T12:35:08;100692.64;;;13.54;63.99
51528;BME280;37612;51.768;21.590;2023-04-08T12:39:10;100685.80;;;13.52;62.62
51528;BME280;37612;51.768;21.590;2023-04-08T12:43:12;100685.68;;;13.41;62.62
51528;BME280;37612;51.768;21.590;2023-04-08T12:47:14;100678.51;;;13.37;62.95
51528;BME280;37612;51.768;21.590;2023-04-08T12:55:39;100675.79;;;13.43;63.30
51528;BME280;37612;51.768;21.590;2023-04-08T12:59:41;100677.45;;;13.42;62.43
51528;BME280;37612;51.768;21.590;2023-04-08T13:03:43;100672.86;;;13.40;62.17
51528;BME280;37612;51.768;21.590;2023-04-08T13:07:45;100669.90;;;13.45;61.45
51528;BME280;37612;51.768;21.590;2023-04-08T13:11:51;100669.96;;;13.35;60.68
51528;BME280;37612;51.768;21.590;2023-04-08T13:16:08;100670.39;;;13.22;59.91
51528;BME280;37612;51.768;21.590;2023-04-08T13:20:10;100668.26;;;13.20;61.25
51528;BME280;37612;51.768;21.590;2023-04-08T13:24:12;100664.33;;;13.34;60.84
51528;BME280;37612;51.768;21.590;2023-04-08T13:28:14;100659.31;;;13.54;61.63
51528;BME280;37612;51.768;21.590;2023-04-08T13:32:29;100659.94;;;13.75;60.82
51528;BME280;37612;51.768;21.590;2023-04-08T13:36:34;100660.88;;;13.49;58.00
51528;BME280;37612;51.768;21.590;2023-04-08T13:40:45;100659.02;;;13.23;59.38
51528;BME280;37612;51.768;21.590;2023-04-08T13:44:48;100656.25;;;13.23;60.30
51528;BME280;37612;51.768;21.590;2023-04-08T13:48:50;100653.05;;;13.33;59.54
51528;BME280;37612;51.768;21.590;2023-04-08T13:52:53;100651.13;;;13.45;58.74
51528;BME280;37612;51.768;21.590;2023-04-08T13:56:57;100650.89;;;13.59;57.16
51528;BME280;37612;51.768;21.590;2023-04-08T14:00:59;100650.73;;;13.66;56.16
51528;BME280;37612;51.768;21.590;2023-04-08T14:05:02;100648.98;;;13.55;55.90
51528;BME280;37612;51.768;21.590;2023-04-08T14:09:05;100650.38;;;13.50;57.25
51528;BME280;37612;51.768;21.590;2023-04-08T14:13:07;100648.19;;;13.46;56.45
51528;BME280;37612;51.768;21.590;2023-04-08T14:17:09;100644.00;;;13.40;56.35
51528;BME280;37612;51.768;21.590;2023-04-08T14:21:12;100642.13;;;13.35;56.13
51528;BME280;37612;51.768;21.590;2023-04-08T14:25:23;100638.21;;;13.46;56.25
51528;BME280;37612;51.768;21.590;2023-04-08T14:29:25;100640.24;;;13.62;56.40
51528;BME280;37612;51.768;21.590;2023-04-08T14:33:27;100634.15;;;13.72;57.22
51528;BME280;37612;51.768;21.590;2023-04-08T14:37:29;100637.52;;;13.64;56.87
51528;BME280;37612;51.768;21.590;2023-04-08T14:41:32;100635.74;;;13.46;56.86
51528;BME280;37612;51.768;21.590;2023-04-08T14:45:34;100639.64;;;13.28;57.19
51528;BME280;37612;51.768;21.590;2023-04-08T14:49:36;100642.58;;;13.04;56.93
51528;BME280;37612;51.768;21.590;2023-04-08T14:53:38;100643.70;;;12.82;57.49
51528;BME280;37612;51.768;21.590;2023-04-08T14:57:41;100644.84;;;12.62;57.46
51528;BME280;37612;51.768;21.590;2023-04-08T15:01:43;100644.18;;;12.49;58.21
51528;BME280;37612;51.768;21.590;2023-04-08T15:05:45;100642.67;;;12.40;58.00
51528;BME280;37612;51.768;21.590;2023-04-08T15:09:47;100646.70;;;12.30;58.17
51528;BME280;37612;51.768;21.590;2023-04-08T15:13:50;100646.20;;;12.22;58.75
51528;BME280;37612;51.768;21.590;2023-04-08T15:17:55;100648.71;;;12.17;58.91
51528;BME280;37612;51.768;21.590;2023-04-08T15:21:57;100650.38;;;12.10;58.85
51528;BME280;37612;51.768;21.590;2023-04-08T15:26:01;100655.82;;;12.02;59.66
51528;BME280;37612;51.768;21.590;2023-04-08T15:30:04;100655.96;;;11.91;59.19
51528;BME280;37612;51.768;21.590;2023-04-08T15:34:17;100658.27;;;11.77;59.48
51528;BME280;37612;51.768;21.590;2023-04-08T15:38:29;100658.13;;;11.66;59.74
51528;BME280;37612;51.768;21.590;2023-04-08T15:42:49;100663.81;;;11.54;59.59
51528;BME280;37612;51.768;21.590;2023-04-08T15:46:55;100665.83;;;11.47;59.86
51528;BME280;37612;51.768;21.590;2023-04-08T15:51:08;100662.88;;;11.41;60.45
51528;BME280;37612;51.768;21.590;2023-04-08T15:55:13;100665.48;;;11.35;61.16
51528;BME280;37612;51.768;21.590;2023-04-08T15:59:15;100667.13;;;11.28;61.53
51528;BME280;37612;51.768;21.590;2023-04-08T16:03:23;100669.45;;;11.21;61.77
51528;BME280;37612;51.768;21.590;2023-04-08T16:07:26;100670.35;;;11.12;62.00
51528;BME280;37612;51.768;21.590;2023-04-08T16:11:33;100674.46;;;11.04;62.39
51528;BME280;37612;51.768;21.590;2023-04-08T16:15:40;100677.80;;;10.98;62.72
51528;BME280;37612;51.768;21.590;2023-04-08T16:19:54;100681.98;;;10.92;63.10
51528;BME280;37612;51.768;21.590;2023-04-08T16:23:59;100681.38;;;10.87;63.34
51528;BME280;37612;51.768;21.590;2023-04-08T16:28:10;100678.14;;;10.82;63.88
51528;BME280;37612;51.768;21.590;2023-04-08T16:32:12;100677.15;;;10.79;64.06
51528;BME280;37612;51.768;21.590;2023-04-08T16:36:16;100674.58;;;10.74;64.12
51528;BME280;37612;51.768;21.590;2023-04-08T16:40:47;100677.85;;;10.67;64.33
51528;BME280;37612;51.768;21.590;2023-04-08T16:50:14;100685.33;;;10.52;64.36
51528;BME280;37612;51.768;21.590;2023-04-08T17:45:31;100715.47;;;9.78;66.63
51528;BME280;37612;51.768;21.590;2023-04-08T17:59:15;100718.19;;;9.62;67.97
51528;BME280;37612;51.768;21.590;2023-04-08T18:03:26;100721.98;;;9.61;68.24
51528;BME280;37612;51.768;21.590;2023-04-08T18:07:28;100725.13;;;9.62;68.34
51528;BME280;37612;51.768;21.590;2023-04-08T18:11:30;100734.20;;;9.58;68.66
51528;BME280;37612;51.768;21.590;2023-04-08T18:15:35;100740.20;;;9.51;68.61
51528;BME280;37612;51.768;21.590;2023-04-08T18:19:37;100744.89;;;9.43;68.77
51528;BME280;37612;51.768;21.590;2023-04-08T18:23:40;100752.02;;;9.34;69.30
51528;BME280;37612;51.768;21.590;2023-04-08T18:27:41;100760.45;;;9.28;69.74
51528;BME280;37612;51.768;21.590;2023-04-08T18:31:43;100763.67;;;9.23;70.07
51528;BME280;37612;51.768;21.590;2023-04-08T18:35:46;100765.68;;;9.21;70.61
51528;BME280;37612;51.768;21.590;2023-04-08T18:39:48;100768.56;;;9.17;71.14
51528;BME280;37612;51.768;21.590;2023-04-08T18:43:50;100774.23;;;9.13;71.09
51528;BME280;37612;51.768;21.590;2023-04-08T18:47:52;100769.02;;;9.05;71.62
51528;BME280;37612;51.768;21.590;2023-04-08T18:51:54;100766.52;;;8.98;72.28
51528;BME280;37612;51.768;21.590;2023-04-08T18:55:57;100767.45;;;8.90;72.58
51528;BME280;37612;51.768;21.590;2023-04-08T18:59:59;100769.39;;;8.84;72.46
51528;BME280;37612;51.768;21.590;2023-04-08T19:04:01;100770.28;;;8.82;72.98
51528;BME280;37612;51.768;21.590;2023-04-08T19:08:04;100770.63;;;8.81;72.73
51528;BME280;37612;51.768;21.590;2023-04-08T19:12:06;100770.54;;;8.76;73.57
51528;BME280;37612;51.768;21.590;2023-04-08T19:16:08;100768.17;;;8.71;73.93
51528;BME280;37612;51.768;21.590;2023-04-08T19:20:11;100762.81;;;8.66;74.13
51528;BME280;37612;51.768;21.590;2023-04-08T19:24:13;100762.64;;;8.63;74.50
51528;BME280;37612;51.768;21.590;2023-04-08T19:28:15;100760.15;;;8.65;74.47
51528;BME280;37612;51.768;21.590;2023-04-08T19:32:17;100760.91;;;8.64;74.86
51528;BME280;37612;51.768;21.590;2023-04-08T19:36:20;100758.61;;;8.59;75.64
51528;BME280;37612;51.768;21.590;2023-04-08T19:40:22;100754.89;;;8.54;75.93
51528;BME280;37612;51.768;21.590;2023-04-08T19:44:28;100754.54;;;8.48;76.27
51528;BME280;37612;51.768;21.590;2023-04-08T19:48:30;100753.54;;;8.46;76.12
51528;BME280;37612;51.768;21.590;2023-04-08T19:52:33;100750.48;;;8.48;76.38
51528;BME280;37612;51.768;21.590;2023-04-08T19:56:37;100748.80;;;8.47;76.98
51528;BME280;37612;51.768;21.590;2023-04-08T20:00:39;100745.47;;;8.46;77.08
51528;BME280;37612;51.768;21.590;2023-04-08T20:04:43;100745.16;;;8.41;76.98
51528;BME280;37612;51.768;21.590;2023-04-08T20:08:45;100745.42;;;8.37;77.18
51528;BME280;37612;51.768;21.590;2023-04-08T20:12:47;100745.11;;;8.37;77.49
51528;BME280;37612;51.768;21.590;2023-04-08T20:16:48;100743.39;;;8.35;77.85
51528;BME280;37612;51.768;21.590;2023-04-08T20:20:50;100741.73;;;8.29;78.07
51528;BME280;37612;51.768;21.590;2023-04-08T20:24:52;100746.43;;;8.24;78.52
51528;BME280;37612;51.768;21.590;2023-04-08T20:28:54;100746.85;;;8.22;78.63
51528;BME280;37612;51.768;21.590;2023-04-08T20:32:56;100748.43;;;8.23;78.83
51528;BME280;37612;51.768;21.590;2023-04-08T20:36:58;100749.65;;;8.19;79.53
51528;BME280;37612;51.768;21.590;2023-04-08T20:41:00;100748.30;;;8.14;79.65
51528;BME280;37612;51.768;21.590;2023-04-08T20:45:02;100745.50;;;8.11;79.93
51528;BME280;37612;51.768;21.590;2023-04-08T20:49:04;100743.70;;;8.11;79.89
51528;BME280;37612;51.768;21.590;2023-04-08T20:53:08;100744.11;;;8.11;80.46
51528;BME280;37612;51.768;21.590;2023-04-08T20:57:10;100748.55;;;8.08;80.62
51528;BME280;37612;51.768;21.590;2023-04-08T21:01:13;100746.20;;;8.05;81.05
51528;BME280;37612;51.768;21.590;2023-04-08T21:05:17;100745.26;;;8.05;81.00
51528;BME280;37612;51.768;21.590;2023-04-08T21:09:27;100745.27;;;8.03;81.24
51528;BME280;37612;51.768;21.590;2023-04-08T21:13:30;100742.77;;;7.98;81.29
51528;BME280;37612;51.768;21.590;2023-04-08T21:17:43;100743.74;;;7.92;81.82
51528;BME280;37612;51.768;21.590;2023-04-08T21:21:45;100741.84;;;7.89;81.80
51528;BME280;37612;51.768;21.590;2023-04-08T21:25:50;100747.63;;;7.87;82.00
51528;BME280;37612;51.768;21.590;2023-04-08T21:29:52;100745.31;;;7.83;82.46
51528;BME280;37612;51.768;21.590;2023-04-08T21:33:55;100743.47;;;7.79;82.36
51528;BME280;37612;51.768;21.590;2023-04-08T21:37:58;100742.41;;;7.75;82.88
51528;BME280;37612;51.768;21.590;2023-04-08T21:42:00;100745.41;;;7.79;82.99
51528;BME280;37612;51.768;21.590;2023-04-08T21:46:02;100739.63;;;7.77;83.32
51528;BME280;37612;51.768;21.590;2023-04-08T21:50:04;100740.35;;;7.72;83.79
51528;BME280;37612;51.768;21.590;2023-04-08T21:54:06;100735.84;;;7.66;84.33
51528;BME280;37612;51.768;21.590;2023-04-08T21:58:08;100736.91;;;7.66;84.21
51528;BME280;37612;51.768;21.590;2023-04-08T22:02:12;100735.68;;;7.66;84.26
51528;BME280;37612;51.768;21.590;2023-04-08T22:06:14;100734.59;;;7.63;83.69
51528;BME280;37612;51.768;21.590;2023-04-08T22:10:16;100733.73;;;7.57;84.40
51528;BME280;37612;51.768;21.590;2023-04-08T22:14:19;100732.89;;;7.54;84.86
51528;BME280;37612;51.768;21.590;2023-04-08T22:18:21;100727.44;;;7.57;85.14
51528;BME280;37612;51.768;21.590;2023-04-08T22:22:29;100729.98;;;7.61;85.25
51528;BME280;37612;51.768;21.590;2023-04-08T22:26:30;100727.43;;;7.65;85.58
51528;BME280;37612;51.768;21.590;2023-04-08T22:30:32;100727.09;;;7.66;85.60
51528;BME280;37612;51.768;21.590;2023-04-08T22:34:34;100732.09;;;7.64;85.81
51528;BME280;37612;51.768;21.590;2023-04-08T22:38:37;100733.70;;;7.62;86.09
51528;BME280;37612;51.768;21.590;2023-04-08T22:42:38;100731.33;;;7.61;86.20
51528;BME280;37612;51.768;21.590;2023-04-08T22:46:40;100732.69;;;7.61;86.25
51528;BME280;37612;51.768;21.590;2023-04-08T22:50:42;100731.55;;;7.59;86.51
51528;BME280;37612;51.768;21.590;2023-04-08T22:54:44;100725.75;;;7.57;86.57
51528;BME280;37612;51.768;21.590;2023-04-08T22:58:46;100728.55;;;7.56;86.78
51528;BME280;37612;51.768;21.590;2023-04-08T23:02:47;100726.28;;;7.57;86.96
51528;BME280;37612;51.768;21.590;2023-04-08T23:06:49;100725.38;;;7.57;87.28
51528;BME280;37612;51.768;21.590;2023-04-08T23:10:53;100727.73;;;7.56;87.58
51528;BME280;37612;51.768;21.590;2023-04-08T23:14:55;100725.95;;;7.50;87.56